Latest Weather Observations for Bickley

IDW60801

Issued at 8:34 am WST Friday 28 July 2017 (issued every 30 minutes, with the page automatically refreshed every 10 minutes)

About weather observations | Map of weather stations | Latest weather observations for WA | Other Formats
Station Details ID: 009240 Name: BICKLEY Lat: -32.01 Lon: 116.14 Height: 384.0 m
Data from the previous 72 hours. | See also: Recent months at Bickley
Date/Time
WST
Temp
°C
App
Temp
°C
Dew
Point
°C
Rel
Hum
%
Delta-T
°C
Wind Press
QNH
hPa
Press
MSL
hPa
Rain since
9am
mm
Dir  Spd
km/h
Gust
km/h
Spd
kts
Gust
kts
28/08:30am 13.4 8.2 8.9 74 2.3 WNW 26 44 14 24 - - 23.8
28/08:05am 13.0 7.5 9.1 77 2.0 W 28 48 15 26 - - 23.8
28/08:00am 13.1 8.0 9.2 77 2.0 WNW 26 44 14 24 - - 23.8
28/07:30am 13.0 7.9 9.3 78 1.9 W 26 48 14 26 - - 23.8
28/07:06am 13.1 7.6 9.2 77 2.0 WNW 28 50 15 27 - - 23.8
28/07:00am 13.1 8.0 9.2 77 2.0 W 26 50 14 27 - - 23.8
28/06:30am 12.9 6.7 9.4 79 1.8 W 32 52 17 28 - - 23.8
28/06:00am 13.1 7.7 11.0 87 1.1 W 30 54 16 29 - - 23.8
28/05:30am 13.0 8.0 12.2 95 0.4 W 30 48 16 26 - - 23.8
28/05:00am 12.5 7.5 12.3 99 0.1 W 30 52 16 28 - - 23.8
28/04:31am 12.8 8.3 12.6 99 0.1 W 28 50 15 27 - - 23.8
28/04:30am 12.9 8.8 12.7 99 0.1 W 26 46 14 25 - - 23.8
28/04:01am 13.2 8.8 13.0 99 0.1 WNW 28 50 15 27 - - 22.6
28/04:00am 13.3 9.3 13.1 99 0.1 WNW 26 50 14 27 - - 22.4
28/03:32am 13.3 9.0 13.1 99 0.1 W 28 52 15 28 - - 22.0
28/03:30am 13.5 9.6 13.3 99 0.1 W 26 39 14 21 - - 22.0
28/03:00am 13.7 8.2 13.5 99 0.1 W 35 59 19 32 - - 21.4
28/02:33am 13.8 9.6 13.6 99 0.1 WNW 28 48 15 26 - - 19.0
28/02:30am 13.7 10.2 13.5 99 0.1 WNW 24 48 13 26 - - 17.8
28/02:00am 13.5 9.2 13.3 99 0.1 NW 28 46 15 25 - - 7.0
28/01:58am 13.5 9.2 13.3 99 0.1 NW 28 46 15 25 - - 7.0
28/01:30am 13.5 10.4 13.3 99 0.1 NW 22 43 12 23 - - 7.0
28/01:00am 13.6 10.1 13.4 99 0.1 NW 24 35 13 19 - - 7.0
28/12:30am 13.7 9.5 13.5 99 0.1 NW 28 46 15 25 - - 6.8
28/12:00am 13.7 9.1 13.5 99 0.1 NW 30 48 16 26 - - 6.8
 
Date/Time
WST
Temp
°C
App
Temp
°C
Dew
Point
°C
Rel
Hum
%
Delta-T
°C
Wind Press
QNH
hPa
Press
MSL
hPa
Rain since
9am
mm
Dir  Spd
km/h
Gust
km/h
Spd
kts
Gust
kts
27/11:33pm 13.9 9.8 13.7 99 0.1 NW 28 48 15 26 - - 6.8
27/11:30pm 13.9 9.8 13.7 99 0.1 NW 28 44 15 24 - - 6.8
27/11:01pm 13.9 9.8 13.7 99 0.1 NNW 28 48 15 26 - - 6.8
27/11:00pm 13.9 10.1 13.7 99 0.1 NNW 26 48 14 26 - - 6.8
27/10:30pm 13.7 9.5 13.5 99 0.1 NNW 28 50 15 27 - - 6.8
27/10:23pm 13.7 9.5 13.5 99 0.1 NNW 28 50 15 27 - - 6.8
27/10:00pm 13.7 9.8 13.4 98 0.2 NW 26 43 14 23 - - 6.8
27/09:30pm 13.8 10.3 13.3 97 0.3 NW 24 39 13 21 - - 6.8
27/09:10pm 14.0 9.8 13.4 96 0.3 NW 28 52 15 28 - - 6.6
27/09:00pm 14.1 10.2 13.3 95 0.5 NW 26 44 14 24 - - 4.8
27/08:50pm 14.2 10.0 13.4 95 0.5 NW 28 57 15 31 - - 2.2
27/08:30pm 14.5 11.0 13.5 94 0.6 NNW 24 43 13 23 - - 1.6
27/08:00pm 14.7 12.0 13.6 93 0.6 NNW 20 43 11 23 - - 1.2
27/07:30pm 14.9 11.0 13.4 91 0.9 NW 26 39 14 21 - - 1.0
27/07:00pm 15.3 11.0 13.3 88 1.1 NW 28 48 15 26 - - 1.0
27/06:37pm 15.4 11.2 13.4 88 1.1 NW 28 46 15 25 - - 1.0
27/06:30pm 15.5 12.0 13.3 87 1.2 NW 24 46 13 25 - - 1.0
27/06:12pm 15.4 11.1 13.2 87 1.2 NW 28 52 15 28 - - 1.0
27/06:00pm 15.4 12.1 12.9 85 1.4 NW 22 43 12 23 - - 1.0
27/05:30pm 15.6 10.7 12.5 82 1.7 NW 30 48 16 26 - - 1.0
27/05:03pm 16.0 10.9 12.0 77 2.2 NW 30 52 16 28 - - 1.0
27/05:00pm 16.0 12.0 11.8 76 2.3 NW 24 46 13 25 - - 1.0
27/04:30pm 16.4 12.3 11.3 72 2.8 NW 24 46 13 25 - - 1.0
27/04:00pm 16.0 12.0 11.8 76 2.3 NW 24 39 13 21 - - 1.0
27/03:30pm 15.7 12.6 13.5 87 1.3 NW 22 35 12 19 - - 1.0
27/03:00pm 15.6 13.0 13.8 89 1.0 NW 20 35 11 19 - - 1.0
27/02:31pm 15.0 10.3 12.0 82 1.7 NNW 28 54 15 29 - - 0.8
27/02:30pm 15.2 10.9 12.2 82 1.7 NNW 26 44 14 24 - - 0.6
27/02:00pm 16.9 12.2 12.0 73 2.7 NNW 28 50 15 27 - - 0.0
27/01:55pm 17.2 12.5 11.9 71 3.0 NNW 28 48 15 26 - - 0.0
27/01:30pm 17.0 12.7 11.9 72 2.8 NNW 26 50 14 27 - - 0.0
27/01:06pm 17.0 12.4 12.3 74 2.6 NNW 28 48 15 26 - - 0.0
27/01:00pm 16.9 13.5 12.6 76 2.4 NNW 22 44 12 24 - - 0.0
27/12:30pm 16.8 14.7 13.7 82 1.8 NNW 17 39 9 21 - - 0.0
27/12:00pm 15.8 13.4 14.3 91 0.9 NNW 20 39 11 21 - - 0.0
27/11:30am 15.7 13.2 15.2 97 0.3 NNW 22 35 12 19 - - 0.0
27/11:00am 14.8 12.5 14.6 99 0.1 N 20 33 11 18 - - 0.0
27/10:30am 13.5 11.7 13.3 99 0.1 N 15 24 8 13 - - 0.0
27/10:00am 13.1 11.5 12.9 99 0.1 NNE 13 20 7 11 - - 0.0
27/09:30am 12.4 10.2 12.2 99 0.1 N 15 24 8 13 - - 0.0
27/09:00am 12.0 9.7 11.8 99 0.1 N 15 28 8 15 - - 27.4
27/08:30am 11.7 8.9 11.5 99 0.1 N 17 30 9 16 - - 27.4
27/08:00am 11.3 8.8 11.1 99 0.1 N 15 28 8 15 - - 27.4
27/07:30am 10.7 8.0 10.5 99 0.1 NNE 15 24 8 13 - - 27.4
27/07:00am 10.6 7.9 10.4 99 0.1 NNE 15 24 8 13 - - 27.4
27/06:30am 10.5 7.8 10.3 99 0.1 NNE 15 24 8 13 - - 27.4
27/06:00am 10.5 7.8 10.3 99 0.1 NE 15 22 8 12 - - 27.4
27/05:30am 10.6 8.3 10.4 99 0.1 NE 13 20 7 11 - - 27.4
27/05:00am 10.6 8.3 10.4 99 0.1 NE 13 17 7 9 - - 27.4
27/04:30am 10.4 8.0 10.2 99 0.1 NE 13 20 7 11 - - 27.4
27/04:00am 10.0 7.2 9.9 99 0.1 NE 15 20 8 11 - - 27.4
27/03:30am 10.5 7.8 10.3 99 0.1 NE 15 22 8 12 - - 27.4
27/03:00am 10.5 8.2 10.3 99 0.1 ENE 13 20 7 11 - - 27.4
27/02:30am 10.8 8.5 10.6 99 0.1 NE 13 20 7 11 - - 27.2
27/02:00am 10.5 8.9 10.3 99 0.1 NE 9 15 5 8 - - 27.2
27/01:30am 10.9 9.4 10.7 99 0.1 ENE 9 13 5 7 - - 27.2
27/01:00am 10.7 9.2 10.4 98 0.2 ENE 9 11 5 6 - - 27.2
27/12:30am 10.9 10.0 10.6 98 0.2 ESE 6 11 3 6 - - 27.2
27/12:00am 10.9 9.8 10.6 98 0.2 E 7 9 4 5 - - 27.2
 
Date/Time
WST
Temp
°C
App
Temp
°C
Dew
Point
°C
Rel
Hum
%
Delta-T
°C
Wind Press
QNH
hPa
Press
MSL
hPa
Rain since
9am
mm
Dir  Spd
km/h
Gust
km/h
Spd
kts
Gust
kts
26/11:30pm 10.5 9.5 10.2 98 0.2 ENE 6 7 3 4 - - 27.2
26/11:00pm 10.3 9.0 10.0 98 0.2 ENE 7 9 4 5 - - 27.2
26/10:30pm 9.4 9.2 8.9 97 0.3 CALM 0 0 0 0 - - 27.2
26/10:00pm 9.8 9.7 9.3 97 0.3 CALM 0 0 0 0 - - 27.2
26/09:30pm 10.1 10.0 9.6 97 0.3 CALM 0 0 0 0 - - 27.2
26/09:00pm 11.2 10.3 10.7 97 0.3 N 6 9 3 5 - - 27.2
26/08:30pm 10.1 10.0 9.5 96 0.3 CALM 0 6 0 3 - - 27.2
26/08:00pm 10.8 10.1 10.2 96 0.3 W 4 6 2 3 - - 27.2
26/07:30pm 11.6 10.8 11.0 96 0.3 WSW 6 7 3 4 - - 27.2
26/07:00pm 11.8 11.0 11.2 96 0.3 WSW 6 7 3 4 - - 27.2
26/06:30pm 11.4 10.5 10.8 96 0.3 W 6 7 3 4 - - 27.2
26/06:00pm 11.9 10.9 11.1 95 0.4 W 7 11 4 6 - - 27.2
26/05:30pm 12.2 10.9 11.4 95 0.4 WSW 9 11 5 6 - - 27.0
26/05:00pm 12.4 11.2 11.5 94 0.5 WSW 9 15 5 8 - - 27.0
26/04:30pm 12.7 10.7 11.6 93 0.6 WSW 13 26 7 14 - - 27.0
26/04:00pm 12.7 10.7 11.4 92 0.7 W 13 20 7 11 - - 27.0
26/03:30pm 13.1 9.7 11.2 88 1.0 WSW 20 35 11 19 - - 26.2
26/03:00pm 14.1 9.7 10.5 79 1.9 WSW 24 39 13 21 - - 25.8
26/02:30pm 15.5 11.3 11.1 75 2.4 W 24 39 13 21 - - 25.8
26/02:00pm 15.8 11.7 12.7 82 1.7 W 26 41 14 22 - - 25.8
26/01:30pm 15.8 12.8 14.7 93 0.6 W 24 39 13 21 - - 25.8
26/01:00pm 14.6 11.4 14.3 98 0.2 W 24 35 13 19 - - 25.8
26/12:30pm 13.8 11.1 13.6 99 0.1 W 20 33 11 18 - - 25.8
26/12:00pm 13.4 11.5 13.1 98 0.2 WNW 15 30 8 16 - - 25.2
26/11:30am 13.3 10.6 12.8 97 0.3 WNW 19 30 10 16 - - 19.8
26/11:17am 13.0 8.8 12.4 96 0.3 WNW 26 46 14 25 - - 19.8
26/11:00am 13.0 10.1 12.4 96 0.3 NW 19 39 10 21 - - 18.2
26/10:30am 13.3 10.3 12.5 95 0.4 NW 20 32 11 17 - - 10.0
26/10:00am 12.5 8.8 11.4 93 0.6 NW 22 39 12 21 - - 10.0
26/09:30am 13.1 9.7 11.3 89 1.0 WNW 20 35 11 19 - - 5.0
26/09:00am 14.5 10.3 12.4 87 1.2 NW 26 41 14 22 - - 1.2
26/08:30am 13.3 8.5 11.7 90 0.9 NW 28 52 15 28 - - 1.2
26/08:28am 13.2 8.4 11.6 90 0.9 NW 28 52 15 28 - - 1.2
26/08:00am 12.5 7.9 11.2 92 0.7 NW 26 44 14 24 - - 1.2
26/07:44am 12.0 7.0 10.9 93 0.6 NW 28 46 15 25 - - 1.2
26/07:30am 11.6 6.4 10.3 92 0.7 NW 28 44 15 24 - - 1.2
26/07:00am 11.4 7.3 10.0 91 0.7 NW 22 35 12 19 - - 1.2
26/06:30am 11.9 7.4 10.1 89 0.9 NW 24 44 13 24 - - 1.2
26/06:00am 12.5 8.1 10.4 87 1.1 NW 24 41 13 22 - - 1.2
26/05:30am 12.8 8.8 10.3 85 1.3 NW 22 43 12 23 - - 1.2
26/05:00am 12.7 8.6 10.2 85 1.3 NW 22 35 12 19 - - 1.2
26/04:51am 12.7 7.5 10.4 86 1.2 NW 28 52 15 28 - - 1.2
26/04:30am 12.3 7.4 10.0 86 1.2 NNW 26 39 14 21 - - 1.2
26/04:00am 12.2 8.0 9.8 85 1.2 NW 22 39 12 21 - - 1.2
26/03:30am 12.9 8.4 9.9 82 1.6 NNW 24 43 13 23 - - 1.0
26/03:00am 12.6 8.4 9.6 82 1.6 NNW 22 41 12 22 - - 1.0
26/02:30am 12.4 8.5 9.4 82 1.5 NNW 20 33 11 18 - - 1.0
26/02:00am 12.3 8.6 9.5 83 1.4 NNW 19 33 10 18 - - 1.0
26/01:30am 12.2 8.5 9.6 84 1.3 NNW 19 33 10 18 - - 1.0
26/01:00am 11.8 8.4 9.0 83 1.4 NNW 17 28 9 15 - - 1.0
26/12:30am 12.5 9.2 9.5 82 1.6 NNW 17 32 9 17 - - 1.0
26/12:00am 12.3 8.9 9.1 81 1.6 NNW 17 33 9 18 - - 1.0
 
Date/Time
WST
Temp
°C
App
Temp
°C
Dew
Point
°C
Rel
Hum
%
Delta-T
°C
Wind Press
QNH
hPa
Press
MSL
hPa
Rain since
9am
mm
Dir  Spd
km/h
Gust
km/h
Spd
kts
Gust
kts
25/11:30pm 12.1 8.7 9.1 82 1.5 NNW 17 28 9 15 - - 1.0
25/11:00pm 11.3 7.8 8.7 84 1.3 NNW 17 24 9 13 - - 1.0
25/10:30pm 11.1 7.9 8.3 83 1.4 NNW 15 24 8 13 - - 1.0
25/10:00pm 11.6 8.1 8.6 82 1.5 NNW 17 26 9 14 - - 1.0
25/09:30pm 11.5 7.9 8.4 81 1.6 NNW 17 28 9 15 - - 1.0
25/09:00pm 11.6 8.1 8.6 82 1.5 NNW 17 24 9 13 - - 1.0
25/08:30pm 11.4 7.9 8.8 84 1.3 NNW 17 24 9 13 - - 1.0
25/08:00pm 11.2 8.1 8.8 85 1.2 NW 15 22 8 12 - - 1.0
25/07:30pm 11.3 8.2 8.9 85 1.2 NW 15 22 8 12 - - 1.0
25/07:00pm 11.6 8.9 8.8 83 1.4 NNW 13 20 7 11 - - 1.0
25/06:30pm 12.3 9.7 9.3 82 1.5 NNW 13 20 7 11 - - 1.0
25/06:00pm 12.8 10.2 9.3 79 1.8 NW 13 22 7 12 - - 1.0
25/05:30pm 13.3 10.3 9.4 77 2.0 NW 15 26 8 14 - - 1.0
25/05:00pm 13.7 10.8 9.6 76 2.1 NW 15 24 8 13 - - 1.0
25/04:30pm 14.2 11.3 9.6 74 2.4 NW 15 22 8 12 - - 1.0
25/04:00pm 14.7 11.8 9.7 72 2.6 NW 15 26 8 14 - - 1.0
25/03:30pm 15.1 12.1 10.7 75 2.4 NW 17 30 9 16 - - 1.0
25/03:00pm 14.9 12.9 12.6 86 1.3 NW 15 24 8 13 - - 1.0
25/02:30pm 15.2 13.3 14.1 93 0.6 NW 17 35 9 19 - - 1.0
25/02:00pm 14.7 13.6 14.2 97 0.3 NW 13 24 7 13 - - 1.0
25/01:30pm 13.5 10.9 13.3 99 0.1 NW 19 30 10 16 - - 1.0
25/01:00pm 12.7 11.0 12.5 99 0.1 NNW 13 24 7 13 - - 1.0
25/12:30pm 12.1 9.5 11.9 99 0.1 NNW 17 26 9 14 - - 1.0
25/12:00pm 11.6 8.2 11.4 99 0.1 NNW 20 33 11 18 - - 1.0
25/11:30am 11.7 8.6 11.5 99 0.1 NNW 19 33 10 18 - - 0.8
25/11:00am 11.7 8.6 11.5 99 0.1 NNW 19 32 10 17 - - 0.8
25/10:30am 11.8 10.6 11.6 99 0.1 NNW 9 15 5 8 - - 0.6
25/10:00am 11.8 10.6 11.6 99 0.1 N 9 13 5 7 - - 0.2
25/09:30am 11.5 10.2 11.3 99 0.1 N 9 13 5 7 - - 0.0
25/09:00am 11.2 9.8 11.0 99 0.1 N 9 15 5 8 - - 1.6

Other Formats:

Comma delimited format used in spreadsheet applications
http://www.bom.gov.au/fwo/IDW60801/IDW60801.95610.axf

JavaScript Object Notation format (JSON) in row-major order
http://www.bom.gov.au/fwo/IDW60801/IDW60801.95610.json